Time,TemperatureF,DewpointF,PressureIn,WindDirection,WindDirectionDegrees,WindSpeedMPH,WindSpeedGustMPH,Humidity,HourlyPrecipIn,Conditions,Clouds,dailyrainin,SoftwareType,DateUTC
2013-09-11 00:01:00,68.2,65.1,29.95,NNW,337,0.0,7.6,90,0.00,,,0.00,WUHU21636XXSP,2013-09-11 04:01:00,
2013-09-11 00:06:00,68.2,65.1,29.98,NNW,337,0.0,7.6,90,0.00,,,0.00,WUHU21636XXSP,2013-09-11 04:06:00,
2013-09-11 00:11:00,68.2,65.1,29.98,North,0,2.9,7.3,90,0.00,,,0.00,WUHU21636XXSP,2013-09-11 04:11:00,
2013-09-11 00:16:00,67.8,64.8,29.98,NNW,337,0.0,7.3,90,0.00,,,0.00,WUHU21636XXSP,2013-09-11 04:16:00,
2013-09-11 00:21:00,67.8,64.8,29.98,NNW,337,0.0,5.1,90,0.00,,,0.00,WUHU21636XXSP,2013-09-11 04:21:00,
2013-09-11 00:26:00,67.6,64.6,29.99,NW,315,4.4,10.9,90,0.00,,,0.00,WUHU21636XXSP,2013-09-11 04:26:00,
2013-09-11 00:31:00,67.5,64.4,29.99,WNW,292,8.5,11.4,90,0.02,,,0.00,WUHU21636XXSP,2013-09-11 04:31:00,
2013-09-11 00:36:00,67.3,64.2,29.98,NNW,337,1.1,11.4,90,0.02,,,0.02,WUHU21636XXSP,2013-09-11 04:36:00,
2013-09-11 00:41:00,66.7,63.7,29.99,West,270,1.1,10.2,90,0.08,,,0.06,WUHU21636XXSP,2013-09-11 04:41:00,
2013-09-11 00:46:00,66.4,63.3,29.98,WNW,292,1.5,8.0,90,0.08,,,0.08,WUHU21636XXSP,2013-09-11 04:46:00,
2013-09-11 00:51:00,66.4,63.3,29.98,WNW,292,0.0,1.5,90,0.08,,,0.08,WUHU21636XXSP,2013-09-11 04:51:00,
2013-09-11 00:56:00,66.4,63.3,29.98,WNW,292,0.8,1.5,90,0.08,,,0.08,WUHU21636XXSP,2013-09-11 04:56:00,
2013-09-11 01:01:00,66.2,63.1,29.98,WNW,292,0.0,0.8,90,0.10,,,0.10,WUHU21636XXSP,2013-09-11 05:01:00,
2013-09-11 01:06:00,66.0,63.0,29.98,WNW,292,0.0,0.8,90,0.12,,,0.12,WUHU21636XXSP,2013-09-11 05:06:00,
2013-09-11 01:11:00,66.0,63.0,29.98,WNW,292,0.0,0.0,90,0.12,,,0.12,WUHU21636XXSP,2013-09-11 05:11:00,
2013-09-11 01:16:00,66.0,63.0,29.98,WNW,292,0.0,0.0,90,0.14,,,0.14,WUHU21636XXSP,2013-09-11 05:16:00,
2013-09-11 01:21:00,65.8,62.8,29.98,WNW,292,0.0,0.0,90,0.14,,,0.14,WUHU21636XXSP,2013-09-11 05:21:00,
2013-09-11 01:26:00,65.8,62.8,29.98,WNW,292,0.0,0.0,90,0.16,,,0.17,WUHU21636XXSP,2013-09-11 05:26:00,
2013-09-11 01:31:00,65.8,62.8,29.97,WNW,292,0.0,0.0,90,0.16,,,0.17,WUHU21636XXSP,2013-09-11 05:31:00,
2013-09-11 01:36:00,65.8,62.8,29.97,WNW,292,0.0,0.0,90,0.16,,,0.17,WUHU21636XXSP,2013-09-11 05:36:00,
2013-09-11 01:41:00,65.7,62.6,29.97,WNW,292,0.0,0.0,90,0.16,,,0.32,WUHU21636XXSP,2013-09-11 05:41:00,
2013-09-11 01:46:00,65.5,62.4,29.98,WNW,292,0.0,0.0,90,0.10,,,0.32,WUHU21636XXSP,2013-09-11 05:46:00,
2013-09-11 01:51:00,65.5,62.4,29.97,WNW,292,0.0,0.0,90,0.10,,,0.32,WUHU21636XXSP,2013-09-11 05:51:00,
2013-09-11 01:56:00,65.5,62.4,29.98,WNW,292,0.0,0.0,90,0.10,,,0.32,WUHU21636XXSP,2013-09-11 05:56:00,
2013-09-11 02:01:00,65.3,62.2,29.98,WNW,292,0.0,0.0,90,0.08,,,0.32,WUHU21636XXSP,2013-09-11 06:01:00,
2013-09-11 02:06:00,65.3,62.2,29.98,WNW,292,0.0,0.0,90,0.08,,,0.32,WUHU21636XXSP,2013-09-11 06:06:00,
2013-09-11 02:11:00,65.3,62.2,29.98,NNE,22,0.0,1.3,90,0.10,,,0.32,WUHU21636XXSP,2013-09-11 06:11:00,
2013-09-11 02:16:00,65.1,62.1,29.98,NNE,22,0.0,1.3,90,0.10,,,0.32,WUHU21636XXSP,2013-09-11 06:16:00,
2013-09-11 02:21:00,65.1,62.1,29.97,SE,135,0.0,0.0,90,0.12,,,0.32,WUHU21636XXSP,2013-09-11 06:21:00,
2013-09-11 02:26:00,64.9,61.9,29.98,SE,135,0.0,0.0,90,0.12,,,0.32,WUHU21636XXSP,2013-09-11 06:26:00,
2013-09-11 02:31:00,64.9,61.9,29.97,SE,135,0.0,0.0,90,0.12,,,0.32,WUHU21636XXSP,2013-09-11 06:31:00,
2013-09-11 02:36:00,64.9,61.9,29.97,SE,135,0.0,0.0,90,0.14,,,0.32,WUHU21636XXSP,2013-09-11 06:36:00,
2013-09-11 02:41:00,64.9,61.9,29.97,SE,135,0.0,0.0,90,0.16,,,0.33,WUHU21636XXSP,2013-09-11 06:41:00,
2013-09-11 02:46:00,64.8,61.7,29.97,SE,135,0.0,0.0,90,0.16,,,0.33,WUHU21636XXSP,2013-09-11 06:46:00,
2013-09-11 02:51:00,64.8,61.7,29.98,SE,135,0.0,0.0,90,0.18,,,0.37,WUHU21636XXSP,2013-09-11 06:51:00,
2013-09-11 02:56:00,64.8,61.7,29.98,SE,135,0.0,0.0,90,0.18,,,0.37,WUHU21636XXSP,2013-09-11 06:56:00,
2013-09-11 03:01:00,64.8,61.7,29.97,SE,135,0.0,0.0,90,0.18,,,0.39,WUHU21636XXSP,2013-09-11 07:01:00,
2013-09-11 03:06:00,64.8,61.7,29.97,SE,135,0.0,0.0,90,0.18,,,0.39,WUHU21636XXSP,2013-09-11 07:06:00,
2013-09-11 03:11:00,64.8,61.7,29.97,SE,135,0.0,0.0,90,0.18,,,0.41,WUHU21636XXSP,2013-09-11 07:11:00,
2013-09-11 03:16:00,64.8,61.7,29.97,SE,135,0.0,1.3,90,0.22,,,0.45,WUHU21636XXSP,2013-09-11 07:16:00,
2013-09-11 03:21:00,64.8,61.7,29.97,SSE,157,1.5,1.5,90,0.20,,,0.47,WUHU21636XXSP,2013-09-11 07:21:00,
2013-09-11 03:26:00,64.8,61.7,29.97,SSE,157,0.0,1.5,90,0.22,,,0.49,WUHU21636XXSP,2013-09-11 07:26:00,
2013-09-11 03:31:00,64.6,61.9,29.97,SSE,157,0.0,1.5,91,0.22,,,0.49,WUHU21636XXSP,2013-09-11 07:31:00,
2013-09-11 03:36:00,64.6,61.9,29.98,SSE,157,0.0,2.9,91,0.20,,,0.51,WUHU21636XXSP,2013-09-11 07:36:00,
2013-09-11 03:41:00,64.6,61.5,29.96,SSW,202,1.5,2.9,90,0.20,,,0.53,WUHU21636XXSP,2013-09-11 07:41:00,
2013-09-11 03:46:00,64.6,61.5,29.96,SSW,202,0.0,2.9,90,0.22,,,0.55,WUHU21636XXSP,2013-09-11 07:46:00,
2013-09-11 03:51:00,64.6,61.5,29.96,SSW,202,0.0,2.9,90,0.22,,,0.55,WUHU21636XXSP,2013-09-11 07:51:00,
2013-09-11 03:56:00,64.6,61.5,29.96,SSW,202,0.0,0.6,90,0.20,,,0.57,WUHU21636XXSP,2013-09-11 07:56:00,
2013-09-11 04:01:00,64.6,61.5,29.96,SSW,202,0.0,0.6,90,0.20,,,0.57,WUHU21636XXSP,2013-09-11 08:01:00,
2013-09-11 04:06:00,64.6,61.5,29.96,SSW,202,0.0,0.0,90,0.18,,,0.57,WUHU21636XXSP,2013-09-11 08:06:00,
2013-09-11 04:11:00,64.6,61.5,29.96,SSW,202,0.0,0.0,90,0.18,,,0.57,WUHU21636XXSP,2013-09-11 08:11:00,
2013-09-11 04:16:00,64.6,61.5,29.96,SSE,157,0.0,2.0,90,0.18,,,0.57,WUHU21636XXSP,2013-09-11 08:16:00,
2013-09-11 04:21:00,64.6,61.5,29.96,SSW,202,0.4,2.9,90,0.14,,,0.59,WUHU21636XXSP,2013-09-11 08:21:00,
2013-09-11 04:26:00,64.6,61.5,29.96,SE,135,0.6,2.9,90,0.14,,,0.59,WUHU21636XXSP,2013-09-11 08:26:00,
2013-09-11 04:32:00,64.6,61.5,29.95,ESE,112,3.1,3.1,90,0.14,,,0.59,WUHU21636XXSP,2013-09-11 08:32:00,
2013-09-11 04:37:00,64.6,61.5,29.95,SSE,157,0.0,3.1,90,0.14,,,0.59,WUHU21636XXSP,2013-09-11 08:37:00,
2013-09-11 04:42:00,64.6,61.5,29.96,SSE,157,3.8,3.8,90,0.14,,,0.59,WUHU21636XXSP,2013-09-11 08:42:00,
2013-09-11 04:46:00,64.6,61.5,29.95,SSE,157,3.5,3.8,90,0.14,,,0.59,WUHU21636XXSP,2013-09-11 08:46:00,
2013-09-11 04:51:00,64.6,61.5,29.95,SE,135,0.0,3.8,90,0.14,,,0.59,WUHU21636XXSP,2013-09-11 08:51:00,
2013-09-11 04:56:00,64.6,61.5,29.95,SE,135,0.0,0.8,90,0.14,,,0.59,WUHU21636XXSP,2013-09-11 08:56:00,
2013-09-11 05:01:00,64.6,61.5,29.95,SE,135,0.0,0.8,90,0.14,,,0.59,WUHU21636XXSP,2013-09-11 09:01:00,
2013-09-11 05:06:00,64.8,61.7,29.95,SE,135,0.0,0.0,90,0.02,,,0.59,WUHU21636XXSP,2013-09-11 09:06:00,
2013-09-11 05:11:00,64.8,61.7,29.95,SE,135,0.0,0.0,90,0.02,,,0.59,WUHU21636XXSP,2013-09-11 09:11:00,
2013-09-11 05:16:00,64.8,61.7,29.95,SSE,157,0.0,0.0,90,0.02,,,0.59,WUHU21636XXSP,2013-09-11 09:16:00,
2013-09-11 05:21:00,64.8,61.7,29.95,SE,135,0.0,0.0,90,0.02,,,0.59,WUHU21636XXSP,2013-09-11 09:21:00,
2013-09-11 05:26:00,64.8,61.7,29.95,SE,135,0.0,0.0,90,0.02,,,0.59,WUHU21636XXSP,2013-09-11 09:26:00,
2013-09-11 05:31:00,64.8,61.7,29.95,SSE,157,0.0,0.0,90,0.02,,,0.59,WUHU21636XXSP,2013-09-11 09:31:00,
2013-09-11 05:36:00,64.8,61.7,29.95,SE,135,0.0,0.0,90,0.02,,,0.59,WUHU21636XXSP,2013-09-11 09:36:00,
2013-09-11 05:41:00,64.8,61.7,29.95,SE,135,0.0,0.8,90,0.02,,,0.59,WUHU21636XXSP,2013-09-11 09:41:00,
2013-09-11 05:46:00,64.8,61.7,29.95,SE,135,0.0,3.1,91,0.02,,,0.59,WUHU21636XXSP,2013-09-11 09:46:00,
2013-09-11 05:51:00,64.8,61.7,29.95,ESE,112,0.0,3.1,91,0.02,,,0.59,WUHU21636XXSP,2013-09-11 09:51:00,
2013-09-11 05:56:00,64.8,61.7,29.95,ESE,112,0.0,0.0,91,0.02,,,0.59,WUHU21636XXSP,2013-09-11 09:56:00,
2013-09-11 06:01:00,64.8,61.7,29.95,ESE,112,0.0,0.0,91,0.02,,,0.59,WUHU21636XXSP,2013-09-11 10:01:00,
2013-09-11 06:06:00,64.6,61.9,29.95,ESE,112,0.0,0.0,91,0.00,,,0.59,WUHU21636XXSP,2013-09-11 10:06:00,
2013-09-11 06:11:00,64.6,61.9,29.95,ESE,112,0.0,0.0,91,0.00,,,0.59,WUHU21636XXSP,2013-09-11 10:11:00,
2013-09-11 06:16:00,64.6,61.9,29.96,ESE,112,0.0,0.0,91,0.00,,,0.59,WUHU21636XXSP,2013-09-11 10:16:00,
2013-09-11 06:21:00,64.6,61.9,29.95,ESE,112,0.0,0.0,91,0.00,,,0.59,WUHU21636XXSP,2013-09-11 10:21:00,
2013-09-11 06:26:00,64.6,61.9,29.96,ESE,112,0.0,0.0,91,0.00,,,0.59,WUHU21636XXSP,2013-09-11 10:26:00,
2013-09-11 06:31:00,64.6,61.9,29.96,ESE,112,0.0,0.0,91,0.00,,,0.59,WUHU21636XXSP,2013-09-11 10:31:00,
2013-09-11 06:36:00,64.8,62.1,29.97,SE,135,0.0,0.0,91,0.00,,,0.59,WUHU21636XXSP,2013-09-11 10:36:00,
2013-09-11 06:41:00,64.8,62.1,29.97,SE,135,0.0,0.0,91,0.00,,,0.59,WUHU21636XXSP,2013-09-11 10:41:00,
2013-09-11 06:46:00,64.8,62.1,29.96,SE,135,1.5,1.5,91,0.00,,,0.59,WUHU21636XXSP,2013-09-11 10:46:00,
2013-09-11 06:52:00,64.8,62.1,29.97,SE,135,0.0,1.5,91,0.00,,,0.59,WUHU21636XXSP,2013-09-11 10:52:00,
2013-09-11 06:57:00,64.8,62.1,29.96,SE,135,0.0,1.5,91,0.00,,,0.59,WUHU21636XXSP,2013-09-11 10:57:00,
2013-09-11 07:02:00,64.8,62.1,29.96,SE,135,0.0,0.0,91,0.00,,,0.59,WUHU21636XXSP,2013-09-11 11:02:00,
2013-09-11 07:07:00,64.8,62.1,29.97,SSE,157,0.0,1.7,91,0.00,,,0.59,WUHU21636XXSP,2013-09-11 11:07:00,
2013-09-11 07:12:00,64.8,62.1,29.96,SE,135,0.0,1.7,91,0.00,,,0.59,WUHU21636XXSP,2013-09-11 11:12:00,
2013-09-11 07:17:00,64.8,62.1,29.96,SE,135,0.0,1.1,91,0.00,,,0.59,WUHU21636XXSP,2013-09-11 11:17:00,
2013-09-11 07:22:00,64.8,62.1,29.96,SE,135,0.0,0.0,91,0.00,,,0.59,WUHU21636XXSP,2013-09-11 11:22:00,
2013-09-11 07:27:00,64.6,61.9,29.97,SE,135,0.0,0.0,91,0.00,,,0.59,WUHU21636XXSP,2013-09-11 11:27:00,
2013-09-11 07:32:00,64.8,62.1,29.97,SSE,157,0.0,0.0,91,0.00,,,0.59,WUHU21636XXSP,2013-09-11 11:32:00,
2013-09-11 07:37:00,64.8,62.1,29.98,SSE,157,0.0,15.0,91,0.00,,,0.59,WUHU21636XXSP,2013-09-11 11:37:00,
2013-09-11 07:42:00,64.8,62.1,29.98,SSE,157,2.0,15.0,91,0.00,,,0.59,WUHU21636XXSP,2013-09-11 11:42:00,
2013-09-11 07:47:00,64.9,62.2,29.98,SSW,202,0.0,3.8,91,0.00,,,0.59,WUHU21636XXSP,2013-09-11 11:47:00,
2013-09-11 07:52:00,64.9,62.2,29.98,SSE,157,4.0,4.0,91,0.00,,,0.59,WUHU21636XXSP,2013-09-11 11:52:00,
2013-09-11 07:57:00,64.9,62.2,29.98,SSE,157,2.9,4.0,91,0.00,,,0.59,WUHU21636XXSP,2013-09-11 11:57:00,
2013-09-11 08:02:00,64.9,62.2,29.98,South,180,0.0,7.6,91,0.00,,,0.59,WUHU21636XXSP,2013-09-11 12:02:00,
2013-09-11 08:07:00,64.9,62.2,29.98,SSE,157,2.6,7.6,91,0.00,,,0.59,WUHU21636XXSP,2013-09-11 12:07:00,
2013-09-11 08:12:00,64.9,62.2,29.98,SSE,157,3.1,3.1,91,0.00,,,0.59,WUHU21636XXSP,2013-09-11 12:12:00,
2013-09-11 08:17:00,64.8,62.1,29.97,South,180,3.3,3.3,91,0.00,,,0.59,WUHU21636XXSP,2013-09-11 12:17:00,
2013-09-11 08:22:00,64.9,62.2,29.98,ESE,112,3.5,3.5,91,0.00,,,0.59,WUHU21636XXSP,2013-09-11 12:22:00,
2013-09-11 08:27:00,64.8,62.1,29.98,SE,135,2.4,3.5,91,0.00,,,0.59,WUHU21636XXSP,2013-09-11 12:27:00,
2013-09-11 08:32:00,64.9,62.2,29.97,SE,135,2.2,2.9,91,0.00,,,0.59,WUHU21636XXSP,2013-09-11 12:32:00,
2013-09-11 08:37:00,65.1,62.4,29.98,SSE,157,0.6,6.7,91,0.00,,,0.59,WUHU21636XXSP,2013-09-11 12:37:00,
2013-09-11 08:42:00,65.5,62.4,29.98,South,180,2.4,6.7,90,0.00,,,0.59,WUHU21636XXSP,2013-09-11 12:42:00,
2013-09-11 08:47:00,65.8,62.8,29.98,SSW,202,0.0,3.3,90,0.00,,,0.59,WUHU21636XXSP,2013-09-11 12:47:00,
2013-09-11 08:52:00,66.0,63.0,29.98,South,180,0.0,3.3,90,0.00,,,0.59,WUHU21636XXSP,2013-09-11 12:52:00,
2013-09-11 08:57:00,66.6,63.7,29.98,SW,225,7.6,8.7,91,0.00,,,0.59,WUHU21636XXSP,2013-09-11 12:57:00,
2013-09-11 09:02:00,66.7,63.9,29.98,SSW,202,3.3,8.7,91,0.00,,,0.59,WUHU21636XXSP,2013-09-11 13:02:00,
2013-09-11 09:07:00,67.3,64.4,29.98,WSW,247,0.0,7.3,91,0.00,,,0.59,WUHU21636XXSP,2013-09-11 13:07:00,
2013-09-11 09:12:00,67.6,64.8,29.98,South,180,2.6,3.3,91,0.00,,,0.59,WUHU21636XXSP,2013-09-11 13:12:00,
2013-09-11 09:17:00,67.8,64.8,29.98,SSW,202,2.4,2.6,90,0.00,,,0.59,WUHU21636XXSP,2013-09-11 13:17:00,
2013-09-11 09:22:00,68.4,65.3,29.98,SSW,202,1.5,3.3,89,0.00,,,0.59,WUHU21636XXSP,2013-09-11 13:22:00,
2013-09-11 09:27:00,69.1,65.7,29.98,SW,225,0.0,3.3,89,0.00,,,0.59,WUHU21636XXSP,2013-09-11 13:27:00,
2013-09-11 09:32:00,69.4,65.7,29.98,WSW,247,0.0,1.5,88,0.00,,,0.59,WUHU21636XXSP,2013-09-11 13:32:00,
2013-09-11 09:37:00,70.3,66.2,29.98,SW,225,0.8,0.8,87,0.00,,,0.59,WUHU21636XXSP,2013-09-11 13:37:00,
2013-09-11 09:42:00,70.2,65.7,29.98,WSW,247,0.0,3.3,86,0.00,,,0.59,WUHU21636XXSP,2013-09-11 13:42:00,
2013-09-11 09:47:00,70.2,65.7,29.98,West,270,2.6,3.3,86,0.00,,,0.59,WUHU21636XXSP,2013-09-11 13:47:00,
2013-09-11 09:52:00,70.2,65.8,29.99,WSW,247,2.2,2.6,86,0.00,,,0.59,WUHU21636XXSP,2013-09-11 13:52:00,
2013-09-11 09:57:00,70.5,66.0,29.98,SSW,202,0.0,3.1,86,0.00,,,0.59,WUHU21636XXSP,2013-09-11 13:57:00,
2013-09-11 10:02:00,70.7,66.2,29.98,West,270,1.1,8.7,86,0.00,,,0.59,WUHU21636XXSP,2013-09-11 14:02:00,
2013-09-11 10:07:00,70.5,66.0,29.98,NW,315,4.9,8.7,86,0.00,,,0.59,WUHU21636XXSP,2013-09-11 14:07:00,
2013-09-11 10:12:00,70.7,66.2,29.97,NW,315,3.3,4.9,86,0.00,,,0.59,WUHU21636XXSP,2013-09-11 14:12:00,
2013-09-11 10:17:00,71.2,66.7,29.97,West,270,1.5,4.9,86,0.00,,,0.59,WUHU21636XXSP,2013-09-11 14:17:00,
2013-09-11 10:22:00,71.6,66.2,29.98,WNW,292,0.0,11.1,84,0.00,,,0.59,WUHU21636XXSP,2013-09-11 14:22:00,
2013-09-11 10:27:00,71.8,66.2,29.98,NNW,337,3.5,11.1,84,0.00,,,0.59,WUHU21636XXSP,2013-09-11 14:27:00,
2013-09-11 10:32:00,71.6,65.7,29.98,NNW,337,4.4,7.1,82,0.00,,,0.59,WUHU21636XXSP,2013-09-11 14:32:00,
2013-09-11 10:37:00,71.2,65.7,29.98,NW,315,6.9,11.4,83,0.00,,,0.59,WUHU21636XXSP,2013-09-11 14:37:00,
2013-09-11 10:42:00,71.8,66.9,29.98,WNW,292,2.6,14.0,85,0.00,,,0.59,WUHU21636XXSP,2013-09-11 14:42:00,
2013-09-11 10:47:00,72.7,67.1,29.98,West,270,2.2,14.0,83,0.00,,,0.59,WUHU21636XXSP,2013-09-11 14:47:00,
2013-09-11 10:52:00,73.4,66.9,29.98,WSW,247,5.8,6.4,80,0.00,,,0.59,WUHU21636XXSP,2013-09-11 14:52:00,
2013-09-11 10:57:00,73.2,66.7,29.98,West,270,3.5,6.4,80,0.00,,,0.59,WUHU21636XXSP,2013-09-11 14:57:00,
2013-09-11 11:02:00,72.7,66.4,29.98,SW,225,6.0,6.0,81,0.00,,,0.59,WUHU21636XXSP,2013-09-11 15:02:00,
2013-09-11 11:07:00,72.0,66.0,29.98,WNW,292,3.3,12.3,82,0.00,,,0.59,WUHU21636XXSP,2013-09-11 15:07:00,
2013-09-11 11:12:00,71.4,65.5,29.98,SW,225,0.0,12.3,82,0.00,,,0.59,WUHU21636XXSP,2013-09-11 15:12:00,
2013-09-11 11:17:00,71.4,65.8,29.97,NW,315,0.0,6.7,83,0.00,,,0.59,WUHU21636XXSP,2013-09-11 15:17:00,
2013-09-11 11:22:00,71.4,65.8,29.97,SW,225,5.1,7.6,83,0.00,,,0.59,WUHU21636XXSP,2013-09-11 15:22:00,
2013-09-11 11:27:00,71.2,65.7,29.97,NW,315,4.0,9.1,83,0.00,,,0.59,WUHU21636XXSP,2013-09-11 15:27:00,
2013-09-11 11:32:00,71.2,65.7,29.98,NW,315,3.3,9.1,83,0.00,,,0.59,WUHU21636XXSP,2013-09-11 15:32:00,
2013-09-11 11:37:00,71.2,65.7,29.98,West,270,0.6,4.0,83,0.00,,,0.59,WUHU21636XXSP,2013-09-11 15:37:00,
2013-09-11 11:42:00,71.2,65.7,29.98,West,270,0.0,3.3,83,0.00,,,0.59,WUHU21636XXSP,2013-09-11 15:42:00,
2013-09-11 11:47:00,71.2,65.7,29.98,West,270,2.2,4.4,83,0.00,,,0.59,WUHU21636XXSP,2013-09-11 15:47:00,
2013-09-11 11:52:00,71.2,65.7,29.98,West,270,0.0,4.4,83,0.00,,,0.59,WUHU21636XXSP,2013-09-11 15:52:00,
2013-09-11 11:57:00,71.2,65.7,29.98,SW,225,0.0,3.3,84,0.00,,,0.59,WUHU21636XXSP,2013-09-11 15:57:00,
2013-09-11 12:02:00,71.2,65.7,29.98,West,270,1.1,3.3,83,0.00,,,0.62,WUHU21636XXSP,2013-09-11 16:02:00,
2013-09-11 12:07:00,71.2,65.7,29.98,WSW,247,2.6,2.6,84,0.00,,,0.62,WUHU21636XXSP,2013-09-11 16:07:00,
2013-09-11 12:12:00,71.4,66.2,29.97,West,270,0.0,2.6,84,0.00,,,0.62,WUHU21636XXSP,2013-09-11 16:12:00,
2013-09-11 12:17:00,71.6,66.4,29.97,WSW,247,3.3,3.3,83,0.00,,,0.62,WUHU21636XXSP,2013-09-11 16:17:00,
2013-09-11 12:22:00,71.6,66.6,29.98,WSW,247,0.0,3.3,84,0.00,,,0.62,WUHU21636XXSP,2013-09-11 16:22:00,
2013-09-11 12:27:00,71.6,66.6,29.97,SSW,202,1.5,1.5,84,0.00,,,0.62,WUHU21636XXSP,2013-09-11 16:27:00,
2013-09-11 12:32:00,72.0,66.7,29.97,WNW,292,4.2,8.2,84,0.00,,,0.62,WUHU21636XXSP,2013-09-11 16:32:00,
2013-09-11 12:37:00,72.0,66.4,29.97,WNW,292,3.3,8.2,83,0.00,,,0.62,WUHU21636XXSP,2013-09-11 16:37:00,
2013-09-11 12:42:00,72.1,66.6,29.97,WNW,292,5.3,6.7,83,0.00,,,0.62,WUHU21636XXSP,2013-09-11 16:42:00,
2013-09-11 12:48:00,72.9,67.3,29.97,SW,225,0.0,5.3,83,0.00,,,0.62,WUHU21636XXSP,2013-09-11 16:48:00,
2013-09-11 12:53:00,73.2,67.3,29.97,West,270,0.0,5.3,82,0.00,,,0.62,WUHU21636XXSP,2013-09-11 16:53:00,
2013-09-11 12:58:00,73.9,68.0,29.97,SW,225,0.0,2.6,82,0.00,,,0.62,WUHU21636XXSP,2013-09-11 16:58:00,
2013-09-11 13:03:00,74.3,67.3,29.97,WNW,292,3.3,3.3,81,0.00,,,0.62,WUHU21636XXSP,2013-09-11 17:03:00,
2013-09-11 13:08:00,74.5,68.2,29.97,WSW,247,1.7,6.7,80,0.00,,,0.62,WUHU21636XXSP,2013-09-11 17:08:00,
2013-09-11 13:13:00,74.5,68.0,29.96,WNW,292,2.0,10.9,80,0.00,,,0.62,WUHU21636XXSP,2013-09-11 17:13:00,
2013-09-11 13:18:00,74.8,67.8,29.96,WNW,292,3.1,29.7,79,0.00,,,0.62,WUHU21636XXSP,2013-09-11 17:18:00,
2013-09-11 13:23:00,75.2,67.8,29.95,WNW,292,4.4,29.7,78,0.00,,,0.62,WUHU21636XXSP,2013-09-11 17:23:00,
2013-09-11 13:28:00,75.7,68.7,29.96,WNW,292,2.9,4.4,79,0.00,,,0.62,WUHU21636XXSP,2013-09-11 17:28:00,
2013-09-11 13:33:00,75.7,68.4,29.96,SW,225,2.6,4.4,76,0.00,,,0.62,WUHU21636XXSP,2013-09-11 17:33:00,
2013-09-11 13:38:00,76.3,67.6,29.96,NW,315,0.0,3.8,75,0.00,,,0.62,WUHU21636XXSP,2013-09-11 17:38:00,
2013-09-11 13:43:00,75.9,67.3,29.96,NW,315,0.0,3.8,76,0.00,,,0.62,WUHU21636XXSP,2013-09-11 17:43:00,
2013-09-11 13:48:00,75.9,67.3,29.96,West,270,0.0,0.0,75,0.00,,,0.62,WUHU21636XXSP,2013-09-11 17:48:00,
2013-09-11 13:53:00,75.9,67.3,29.96,WNW,292,3.1,8.7,75,0.00,,,0.62,WUHU21636XXSP,2013-09-11 17:53:00,
2013-09-11 13:58:00,75.7,67.6,29.96,NW,315,3.5,8.7,76,0.00,,,0.62,WUHU21636XXSP,2013-09-11 17:58:00,
2013-09-11 14:03:00,75.7,67.6,29.96,West,270,1.5,3.5,77,0.00,,,0.62,WUHU21636XXSP,2013-09-11 18:03:00,
2013-09-11 14:08:00,75.4,66.7,29.96,WNW,292,4.2,4.2,75,0.00,,,0.62,WUHU21636XXSP,2013-09-11 18:08:00,
2013-09-11 14:13:00,74.8,67.5,29.96,NNW,337,5.1,6.9,78,0.00,,,0.62,WUHU21636XXSP,2013-09-11 18:13:00,
2013-09-11 14:18:00,74.8,67.5,29.96,West,270,2.2,6.9,78,0.00,,,0.62,WUHU21636XXSP,2013-09-11 18:18:00,
2013-09-11 14:23:00,76.1,67.5,29.96,SW,225,2.2,6.9,75,0.00,,,0.62,WUHU21636XXSP,2013-09-11 18:23:00,
2013-09-11 14:28:00,77.7,68.4,29.96,West,270,0.0,6.9,73,0.00,,,0.62,WUHU21636XXSP,2013-09-11 18:28:00,
2013-09-11 14:33:00,78.6,69.4,29.96,WNW,292,3.8,6.2,73,0.00,,,0.62,WUHU21636XXSP,2013-09-11 18:33:00,
2013-09-11 14:38:00,79.3,67.8,29.95,NNW,337,4.2,9.3,68,0.00,,,0.62,WUHU21636XXSP,2013-09-11 18:38:00,
2013-09-11 14:43:00,79.3,67.3,29.95,West,270,3.1,9.3,67,0.00,,,0.62,WUHU21636XXSP,2013-09-11 18:43:00,
2013-09-11 14:48:00,79.3,68.4,29.95,WNW,292,4.6,10.0,68,0.00,,,0.62,WUHU21636XXSP,2013-09-11 18:48:00,
2013-09-11 14:53:00,79.3,68.2,29.96,NW,315,6.0,12.7,69,0.00,,,0.62,WUHU21636XXSP,2013-09-11 18:53:00,
2013-09-11 14:58:00,78.4,67.3,29.96,WNW,292,3.1,19.4,69,0.00,,,0.62,WUHU21636XXSP,2013-09-11 18:58:00,
2013-09-11 15:03:00,79.0,67.8,29.95,NW,315,0.0,19.4,70,0.00,,,0.62,WUHU21636XXSP,2013-09-11 19:03:00,
2013-09-11 15:08:00,78.6,67.1,29.95,WNW,292,3.3,19.0,68,0.00,,,0.62,WUHU21636XXSP,2013-09-11 19:08:00,
2013-09-11 15:13:00,77.5,66.2,29.95,NW,315,7.1,13.4,69,0.00,,,0.62,WUHU21636XXSP,2013-09-11 19:13:00,
2013-09-11 15:18:00,76.6,66.6,29.95,NW,315,3.3,17.0,71,0.00,,,0.62,WUHU21636XXSP,2013-09-11 19:18:00,
2013-09-11 15:23:00,77.4,66.7,29.95,NNW,337,4.2,17.0,69,0.00,,,0.62,WUHU21636XXSP,2013-09-11 19:23:00,
2013-09-11 15:28:00,77.5,66.7,29.95,West,270,3.3,13.6,69,0.00,,,0.62,WUHU21636XXSP,2013-09-11 19:28:00,
2013-09-11 15:33:00,78.4,66.9,29.95,West,270,0.0,11.4,67,0.00,,,0.62,WUHU21636XXSP,2013-09-11 19:33:00,
2013-09-11 15:38:00,77.4,65.3,29.95,NW,315,9.8,12.3,67,0.00,,,0.62,WUHU21636XXSP,2013-09-11 19:38:00,
2013-09-11 15:43:00,76.6,65.7,29.95,NW,315,6.2,15.2,68,0.00,,,0.62,WUHU21636XXSP,2013-09-11 19:43:00,
2013-09-11 15:48:00,76.6,66.2,29.95,NW,315,7.1,15.2,70,0.00,,,0.62,WUHU21636XXSP,2013-09-11 19:48:00,
2013-09-11 15:53:00,76.6,66.4,29.95,NW,315,5.3,15.6,69,0.00,,,0.62,WUHU21636XXSP,2013-09-11 19:53:00,
2013-09-11 15:58:00,76.8,65.8,29.95,West,270,4.4,15.6,69,0.00,,,0.62,WUHU21636XXSP,2013-09-11 19:58:00,
2013-09-11 16:03:00,78.1,66.2,29.96,WNW,292,0.8,15.4,67,0.00,,,0.62,WUHU21636XXSP,2013-09-11 20:03:00,
2013-09-11 16:08:00,78.6,65.8,29.96,WNW,292,4.0,15.2,65,0.00,,,0.62,WUHU21636XXSP,2013-09-11 20:08:00,
2013-09-11 16:13:00,79.3,66.4,29.96,NW,315,7.6,15.2,65,0.00,,,0.62,WUHU21636XXSP,2013-09-11 20:13:00,
2013-09-11 16:18:00,78.6,66.2,29.96,NW,315,4.6,15.2,66,0.00,,,0.62,WUHU21636XXSP,2013-09-11 20:18:00,
2013-09-11 16:23:00,78.3,65.8,29.96,West,270,11.1,15.4,66,0.00,,,0.62,WUHU21636XXSP,2013-09-11 20:23:00,
2013-09-11 16:28:00,78.6,65.8,29.95,West,270,4.9,15.4,65,0.00,,,0.62,WUHU21636XXSP,2013-09-11 20:28:00,
2013-09-11 16:33:00,79.0,66.0,29.96,West,270,0.6,12.3,65,0.00,,,0.62,WUHU21636XXSP,2013-09-11 20:33:00,
2013-09-11 16:38:00,79.5,66.6,29.96,WNW,292,3.3,10.9,65,0.00,,,0.62,WUHU21636XXSP,2013-09-11 20:38:00,
2013-09-11 16:43:00,79.3,66.4,29.96,SSW,202,6.7,12.5,65,0.00,,,0.62,WUHU21636XXSP,2013-09-11 20:43:00,
2013-09-11 16:48:00,78.6,66.2,29.96,WSW,247,4.6,12.5,66,0.00,,,0.62,WUHU21636XXSP,2013-09-11 20:48:00,
2013-09-11 16:53:00,78.6,66.6,29.96,WNW,292,4.6,32.8,67,0.00,,,0.62,WUHU21636XXSP,2013-09-11 20:53:00,
2013-09-11 16:58:00,78.3,66.4,29.95,West,270,3.8,32.8,67,0.00,,,0.62,WUHU21636XXSP,2013-09-11 20:58:00,
2013-09-11 17:03:00,78.6,66.6,29.95,WSW,247,4.0,10.5,67,0.00,,,0.62,WUHU21636XXSP,2013-09-11 21:03:00,
2013-09-11 17:08:00,77.9,66.9,29.95,WNW,292,3.3,4.0,68,0.00,,,0.62,WUHU21636XXSP,2013-09-11 21:08:00,
2013-09-11 17:13:00,78.6,67.5,29.95,West,270,3.3,30.1,68,0.00,,,0.62,WUHU21636XXSP,2013-09-11 21:13:00,
2013-09-11 17:18:00,79.0,66.9,29.95,WSW,247,0.0,30.1,67,0.00,,,0.62,WUHU21636XXSP,2013-09-11 21:18:00,
2013-09-11 17:23:00,77.5,66.6,29.95,WNW,292,4.2,7.1,69,0.00,,,0.62,WUHU21636XXSP,2013-09-11 21:23:00,
2013-09-11 17:28:00,77.2,66.2,29.95,West,270,0.6,10.7,69,0.00,,,0.62,WUHU21636XXSP,2013-09-11 21:28:00,
2013-09-11 17:33:00,76.6,66.2,29.95,West,270,0.0,10.7,70,0.00,,,0.62,WUHU21636XXSP,2013-09-11 21:33:00,
2013-09-11 17:38:00,76.8,66.4,29.95,West,270,3.5,3.5,70,0.00,,,0.62,WUHU21636XXSP,2013-09-11 21:38:00,
2013-09-11 17:43:00,77.2,65.7,29.95,WSW,247,7.8,16.5,68,0.00,,,0.62,WUHU21636XXSP,2013-09-11 21:43:00,
2013-09-11 17:48:00,76.8,65.8,29.95,WNW,292,6.0,16.5,69,0.00,,,0.62,WUHU21636XXSP,2013-09-11 21:48:00,
2013-09-11 17:53:00,77.0,66.0,29.95,West,270,2.2,10.9,69,0.00,,,0.62,WUHU21636XXSP,2013-09-11 21:53:00,
2013-09-11 17:58:00,77.5,66.0,29.95,WSW,247,2.0,10.9,68,0.00,,,0.62,WUHU21636XXSP,2013-09-11 21:58:00,
2013-09-11 18:03:00,77.7,66.7,29.95,WSW,247,0.0,7.8,69,0.00,,,0.62,WUHU21636XXSP,2013-09-11 22:03:00,
2013-09-11 18:08:00,77.4,65.8,29.94,SSW,202,0.2,8.0,68,0.00,,,0.62,WUHU21636XXSP,2013-09-11 22:08:00,
2013-09-11 18:13:00,77.4,65.8,29.94,WNW,292,1.3,8.0,69,0.00,,,0.62,WUHU21636XXSP,2013-09-11 22:13:00,
2013-09-11 18:18:00,77.2,66.2,29.95,WNW,292,2.2,10.0,69,0.00,,,0.62,WUHU21636XXSP,2013-09-11 22:18:00,
2013-09-11 18:23:00,77.2,66.2,29.95,NW,315,3.5,10.0,69,0.00,,,0.62,WUHU21636XXSP,2013-09-11 22:23:00,
2013-09-11 18:28:00,76.8,65.8,29.95,West,270,0.6,8.9,69,0.00,,,0.62,WUHU21636XXSP,2013-09-11 22:28:00,
2013-09-11 18:33:00,77.2,66.6,29.94,West,270,0.6,8.9,70,0.00,,,0.62,WUHU21636XXSP,2013-09-11 22:33:00,
2013-09-11 18:38:00,77.2,66.6,29.94,NW,315,0.0,3.8,70,0.00,,,0.62,WUHU21636XXSP,2013-09-11 22:38:00,
2013-09-11 18:43:00,77.4,66.7,29.94,West,270,0.0,0.8,70,0.00,,,0.62,WUHU21636XXSP,2013-09-11 22:43:00,
2013-09-11 18:48:00,76.8,65.8,29.94,SW,225,4.2,4.2,69,0.00,,,0.62,WUHU21636XXSP,2013-09-11 22:48:00,
2013-09-11 18:53:00,76.3,65.8,29.93,West,270,0.0,4.2,70,0.00,,,0.62,WUHU21636XXSP,2013-09-11 22:53:00,
2013-09-11 18:58:00,76.3,65.8,29.93,West,270,0.0,4.2,71,0.00,,,0.62,WUHU21636XXSP,2013-09-11 22:58:00,
2013-09-11 19:03:00,75.7,65.7,29.93,WNW,292,0.0,3.1,71,0.00,,,0.62,WUHU21636XXSP,2013-09-11 23:03:00,
2013-09-11 19:08:00,75.4,65.7,29.93,NW,315,0.0,2.0,72,0.00,,,0.62,WUHU21636XXSP,2013-09-11 23:08:00,
2013-09-11 19:13:00,75.0,65.3,29.93,NW,315,3.3,3.3,72,0.00,,,0.62,WUHU21636XXSP,2013-09-11 23:13:00,
2013-09-11 19:18:00,74.5,65.1,29.93,West,270,0.0,5.3,73,0.00,,,0.62,WUHU21636XXSP,2013-09-11 23:18:00,
2013-09-11 19:23:00,74.1,65.3,29.93,West,270,1.1,5.3,74,0.00,,,0.62,WUHU21636XXSP,2013-09-11 23:23:00,
2013-09-11 19:28:00,73.9,65.1,29.93,NW,315,0.0,2.6,74,0.00,,,0.62,WUHU21636XXSP,2013-09-11 23:28:00,
2013-09-11 19:34:00,73.8,65.1,29.92,NW,315,2.2,2.6,74,0.00,,,0.62,WUHU21636XXSP,2013-09-11 23:34:00,
2013-09-11 19:39:00,73.2,64.8,29.92,WSW,247,0.0,2.2,75,0.00,,,0.62,WUHU21636XXSP,2013-09-11 23:39:00,
2013-09-11 19:44:00,72.7,64.6,29.92,WSW,247,1.1,2.2,76,0.00,,,0.62,WUHU21636XXSP,2013-09-11 23:44:00,
2013-09-11 19:49:00,72.1,64.0,29.92,WSW,247,0.0,2.0,76,0.00,,,0.62,WUHU21636XXSP,2013-09-11 23:49:00,
2013-09-11 19:54:00,71.8,64.0,29.92,WSW,247,0.0,1.1,77,0.00,,,0.62,WUHU21636XXSP,2013-09-11 23:54:00,
2013-09-11 19:59:00,71.2,63.9,29.92,WSW,247,0.0,0.0,78,0.00,,,0.62,WUHU21636XXSP,2013-09-11 23:59:00,
2013-09-11 20:04:00,70.9,63.5,29.92,WSW,247,0.0,0.0,78,0.00,,,0.62,WUHU21636XXSP,2013-09-12 00:04:00,
2013-09-11 20:09:00,70.5,64.0,29.92,WSW,247,0.0,0.0,80,0.00,,,0.62,WUHU21636XXSP,2013-09-12 00:09:00,
2013-09-11 20:14:00,70.0,63.5,29.92,WSW,247,0.0,0.0,80,0.00,,,0.62,WUHU21636XXSP,2013-09-12 00:14:00,
2013-09-11 20:19:00,69.6,63.3,29.92,WSW,247,0.0,0.0,81,0.00,,,0.62,WUHU21636XXSP,2013-09-12 00:19:00,
2013-09-11 20:24:00,69.4,63.3,29.92,WSW,247,0.0,0.0,81,0.00,,,0.62,WUHU21636XXSP,2013-09-12 00:24:00,
2013-09-11 20:29:00,69.1,63.0,29.92,WSW,247,0.0,0.0,81,0.00,,,0.62,WUHU21636XXSP,2013-09-12 00:29:00,
2013-09-11 20:34:00,68.9,63.1,29.92,WSW,247,0.0,0.0,82,0.00,,,0.62,WUHU21636XXSP,2013-09-12 00:34:00,
2013-09-11 20:39:00,68.7,63.0,29.92,WSW,247,0.0,0.0,82,0.00,,,0.62,WUHU21636XXSP,2013-09-12 00:39:00,
2013-09-11 20:44:00,68.5,63.1,29.92,WSW,247,0.0,0.0,82,0.00,,,0.62,WUHU21636XXSP,2013-09-12 00:44:00,
2013-09-11 20:49:00,68.4,62.6,29.92,WSW,247,0.0,0.0,83,0.00,,,0.62,WUHU21636XXSP,2013-09-12 00:49:00,
2013-09-11 20:54:00,68.2,62.8,29.92,WSW,247,0.0,0.0,83,0.00,,,0.62,WUHU21636XXSP,2013-09-12 00:54:00,
2013-09-11 20:59:00,68.0,62.8,29.92,WSW,247,0.0,0.0,84,0.00,,,0.62,WUHU21636XXSP,2013-09-12 00:59:00,
2013-09-11 21:04:00,67.8,62.8,29.92,WSW,247,0.0,0.0,84,0.00,,,0.62,WUHU21636XXSP,2013-09-12 01:04:00,
2013-09-11 21:09:00,67.8,62.8,29.92,WSW,247,0.0,0.0,84,0.00,,,0.62,WUHU21636XXSP,2013-09-12 01:09:00,
2013-09-11 21:14:00,67.6,63.0,29.92,WSW,247,0.0,0.0,85,0.00,,,0.62,WUHU21636XXSP,2013-09-12 01:14:00,
2013-09-11 21:19:00,67.6,63.0,29.92,WSW,247,0.0,0.0,85,0.00,,,0.62,WUHU21636XXSP,2013-09-12 01:19:00,
2013-09-11 21:24:00,67.6,63.0,29.92,WSW,247,0.0,0.0,85,0.00,,,0.62,WUHU21636XXSP,2013-09-12 01:24:00,
2013-09-11 21:29:00,67.6,63.0,29.92,SSE,157,0.0,2.2,85,0.00,,,0.62,WUHU21636XXSP,2013-09-12 01:29:00,
2013-09-11 21:34:00,67.6,63.0,29.92,SSE,157,0.0,2.2,85,0.00,,,0.62,WUHU21636XXSP,2013-09-12 01:34:00,
2013-09-11 21:39:00,67.6,63.0,29.92,SSE,157,1.5,3.1,85,0.00,,,0.62,WUHU21636XXSP,2013-09-12 01:39:00,
2013-09-11 21:44:00,67.6,63.0,29.92,SSE,157,0.0,3.1,85,0.00,,,0.62,WUHU21636XXSP,2013-09-12 01:44:00,
2013-09-11 21:49:00,67.6,63.0,29.92,SSE,157,0.0,1.5,85,0.00,,,0.62,WUHU21636XXSP,2013-09-12 01:49:00,
2013-09-11 21:54:00,67.5,62.8,29.92,SSE,157,0.0,0.0,85,0.00,,,0.62,WUHU21636XXSP,2013-09-12 01:54:00,
2013-09-11 21:59:00,67.5,62.8,29.92,SSE,157,0.8,0.8,86,0.00,,,0.62,WUHU21636XXSP,2013-09-12 01:59:00,
2013-09-11 22:04:00,67.5,63.0,29.92,SSE,157,0.0,0.8,86,0.00,,,0.62,WUHU21636XXSP,2013-09-12 02:04:00,
2013-09-11 22:09:00,67.6,63.1,29.91,SSE,157,0.0,0.0,86,0.00,,,0.62,WUHU21636XXSP,2013-09-12 02:09:00,
2013-09-11 22:14:00,67.6,63.1,29.91,SSE,157,1.1,1.1,85,0.00,,,0.62,WUHU21636XXSP,2013-09-12 02:14:00,
2013-09-11 22:19:00,67.3,62.6,29.91,SSE,157,0.0,1.1,85,0.00,,,0.62,WUHU21636XXSP,2013-09-12 02:19:00,
2013-09-11 22:24:00,67.3,62.6,29.91,SSE,157,0.0,0.0,85,0.00,,,0.62,WUHU21636XXSP,2013-09-12 02:24:00,
2013-09-11 22:29:00,67.1,62.6,29.91,SSE,157,0.0,0.0,86,0.00,,,0.62,WUHU21636XXSP,2013-09-12 02:29:00,
2013-09-11 22:34:00,66.9,62.4,29.91,SSE,157,0.8,1.5,86,0.00,,,0.62,WUHU21636XXSP,2013-09-12 02:34:00,
2013-09-11 22:39:00,66.9,62.4,29.91,SSE,157,0.0,1.5,86,0.00,,,0.62,WUHU21636XXSP,2013-09-12 02:39:00,
2013-09-11 22:44:00,66.7,62.2,29.91,SSE,157,2.0,2.0,86,0.00,,,0.62,WUHU21636XXSP,2013-09-12 02:44:00,
2013-09-11 22:49:00,66.6,62.1,29.91,SSE,157,0.0,2.0,86,0.00,,,0.62,WUHU21636XXSP,2013-09-12 02:49:00,
2013-09-11 22:54:00,66.6,62.6,29.91,SSE,157,0.8,1.1,87,0.00,,,0.62,WUHU21636XXSP,2013-09-12 02:54:00,
2013-09-11 22:59:00,66.4,62.2,29.91,SSE,157,0.2,3.5,87,0.00,,,0.62,WUHU21636XXSP,2013-09-12 02:59:00,
2013-09-11 23:04:00,66.4,62.2,29.91,SSE,157,0.0,3.5,87,0.00,,,0.62,WUHU21636XXSP,2013-09-12 03:04:00,
2013-09-11 23:09:00,66.0,61.9,29.91,SSE,157,0.0,0.0,87,0.00,,,0.62,WUHU21636XXSP,2013-09-12 03:09:00,
2013-09-11 23:14:00,66.0,62.2,29.92,NNW,337,3.5,6.4,88,0.00,,,0.62,WUHU21636XXSP,2013-09-12 03:14:00,
2013-09-11 23:19:00,66.4,62.6,29.92,NNW,337,0.0,6.4,88,0.00,,,0.62,WUHU21636XXSP,2013-09-12 03:19:00,
2013-09-11 23:24:00,66.4,62.6,29.92,NNW,337,0.8,3.5,88,0.00,,,0.62,WUHU21636XXSP,2013-09-12 03:24:00,
2013-09-11 23:29:00,66.4,62.6,29.92,NNW,337,1.1,3.3,88,0.00,,,0.62,WUHU21636XXSP,2013-09-12 03:29:00,
2013-09-11 23:34:00,66.4,62.6,29.92,NNW,337,0.0,1.1,88,0.02,,,0.62,WUHU21636XXSP,2013-09-12 03:34:00,
2013-09-11 23:39:00,66.6,62.8,29.92,NNW,337,0.0,1.1,88,0.06,,,0.65,WUHU21636XXSP,2013-09-12 03:39:00,
2013-09-11 23:44:00,66.4,63.0,29.92,NNW,337,0.0,0.0,89,0.06,,,0.65,WUHU21636XXSP,2013-09-12 03:44:00,
2013-09-11 23:49:00,66.4,63.0,29.92,NNW,337,0.0,0.0,89,0.06,,,0.65,WUHU21636XXSP,2013-09-12 03:49:00,
2013-09-11 23:54:00,66.4,63.0,29.92,NNW,337,0.0,0.0,90,0.08,,,0.67,WUHU21636XXSP,2013-09-12 03:54:00,
2013-09-11 23:59:00,66.6,63.5,29.92,NNW,337,0.0,0.0,90,0.08,,,0.67,WUHU21636XXSP,2013-09-12 03:59:00,